createdAt,value
2022-12-06T00:02:03.439Z,101465.31
2022-12-06T00:04:33.963Z,101460.81
2022-12-06T00:07:03.950Z,101447.09
2022-12-06T00:09:36.413Z,101443.53
2022-12-06T00:12:06.726Z,101445.38
2022-12-06T00:14:37.083Z,101449.69
2022-12-06T00:17:08.602Z,101441.88
2022-12-06T00:19:39.213Z,101435.81
2022-12-06T00:22:09.113Z,101434.94
2022-12-06T00:24:39.682Z,101438.47
2022-12-06T00:27:10.667Z,101428.88
2022-12-06T00:29:41.102Z,101433.34
2022-12-06T00:32:19.072Z,101432.38
2022-12-06T00:34:50.037Z,101423.84
2022-12-06T00:37:20.193Z,101426.47
2022-12-06T00:39:50.673Z,101423.81
2022-12-06T00:42:20.802Z,101423.84
2022-12-06T00:44:51.082Z,101418.63
2022-12-06T00:47:22.553Z,101429.91
2022-12-06T00:49:52.952Z,101426.47
2022-12-06T00:52:22.984Z,101425.56
2022-12-06T00:54:53.493Z,101427.34
2022-12-06T00:57:23.536Z,101436.00
2022-12-06T00:59:53.852Z,101433.34
2022-12-06T01:02:25.252Z,101441.22
2022-12-06T01:04:55.633Z,101446.47
2022-12-06T01:07:25.608Z,101440.41
2022-12-06T01:09:56.205Z,101425.63
2022-12-06T01:12:26.438Z,101420.41
2022-12-06T01:14:56.817Z,101411.88
2022-12-06T01:17:28.406Z,101410.16
2022-12-06T01:19:58.986Z,101409.19
2022-12-06T01:22:29.266Z,101403.06
2022-12-06T01:24:59.676Z,101403.06
2022-12-06T01:27:29.816Z,101391.69
2022-12-06T01:30:00.589Z,101396.97
2022-12-06T01:32:32.875Z,101394.50
2022-12-06T01:35:03.238Z,101385.69
2022-12-06T01:37:33.298Z,101389.13
2022-12-06T01:40:03.657Z,101387.41
2022-12-06T01:42:36.429Z,101383.91
2022-12-06T01:45:08.077Z,101383.09
2022-12-06T01:47:42.968Z,101376.09
2022-12-06T01:50:24.650Z,101367.50
2022-12-06T01:52:58.316Z,101367.50
2022-12-06T01:55:32.529Z,101363.19
2022-12-06T01:58:18.318Z,101350.97
2022-12-06T02:00:48.776Z,101351.00
2022-12-06T02:03:23.466Z,101342.25
2022-12-06T02:05:55.108Z,101343.03
2022-12-06T02:08:26.168Z,101335.31
2022-12-06T02:10:56.737Z,101334.47
2022-12-06T02:13:27.978Z,101333.56
2022-12-06T02:16:07.147Z,101327.47
2022-12-06T02:18:45.877Z,101331.91
2022-12-06T02:21:24.008Z,101327.47
2022-12-06T02:24:38.798Z,101317.09
2022-12-06T02:27:35.126Z,101315.31
2022-12-06T02:30:11.277Z,101307.53
2022-12-06T02:32:55.055Z,101309.31
2022-12-06T02:35:33.548Z,101308.34
2022-12-06T02:38:13.041Z,101303.13
2022-12-06T02:40:48.977Z,101297.09
2022-12-06T02:43:23.748Z,101288.38
2022-12-06T02:45:58.800Z,101286.69
2022-12-06T02:48:30.868Z,101283.19
2022-12-06T02:51:04.916Z,101280.63
2022-12-06T02:53:39.795Z,101277.97
2022-12-06T02:56:10.439Z,101271.91
2022-12-06T02:58:40.868Z,101271.91
2022-12-06T03:01:14.672Z,101267.66
2022-12-06T03:04:07.042Z,101271.09
2022-12-06T03:07:06.676Z,101267.59
2022-12-06T03:09:49.898Z,101271.09
2022-12-06T03:12:31.577Z,101285.94
2022-12-06T03:15:10.770Z,101280.72
2022-12-06T03:17:48.872Z,101288.59
2022-12-06T03:20:26.409Z,101286.97
2022-12-06T03:23:02.658Z,101286.03
2022-12-06T03:25:35.838Z,101284.28
2022-12-06T03:28:08.489Z,101277.38
2022-12-06T03:30:39.667Z,101276.50
2022-12-06T03:33:11.709Z,101273.88
2022-12-06T03:35:44.957Z,101268.66
2022-12-06T03:38:18.462Z,101263.38
2022-12-06T03:40:53.649Z,101263.44
2022-12-06T03:43:23.778Z,101254.75
2022-12-06T03:46:01.487Z,101253.88
2022-12-06T03:48:36.778Z,101252.16
2022-12-06T03:51:12.345Z,101244.28
2022-12-06T03:53:48.716Z,101239.94
2022-12-06T03:56:19.778Z,101245.16
2022-12-06T03:58:49.747Z,101239.97
2022-12-06T04:01:21.283Z,101245.22
2022-12-06T04:03:51.866Z,101246.03
2022-12-06T04:06:23.648Z,101244.22
2022-12-06T04:08:53.714Z,101241.72
2022-12-06T04:11:23.947Z,101239.94
2022-12-06T04:13:53.917Z,101241.78
2022-12-06T04:16:41.509Z,101242.69
2022-12-06T04:19:11.827Z,101247.81
2022-12-06T04:22:00.847Z,101242.59
2022-12-06T04:24:30.958Z,101245.28
2022-12-06T04:27:21.775Z,101240.97
2022-12-06T04:30:09.290Z,101238.41
2022-12-06T04:32:56.598Z,101233.16
2022-12-06T04:35:43.767Z,101234.91
2022-12-06T04:38:33.016Z,101229.78
2022-12-06T04:41:03.231Z,101228.13
2022-12-06T04:43:44.409Z,101218.56
2022-12-06T04:46:16.013Z,101224.56
2022-12-06T04:48:46.336Z,101214.06
2022-12-06T04:51:17.458Z,101215.81
2022-12-06T04:53:49.578Z,101210.66
2022-12-06T04:56:19.972Z,101213.28
2022-12-06T04:58:50.400Z,101211.50
2022-12-06T05:01:20.740Z,101210.56
2022-12-06T05:03:51.181Z,101216.66
2022-12-06T05:06:21.326Z,101206.34
2022-12-06T05:08:53.158Z,101202.91
2022-12-06T05:11:22.977Z,101206.41
2022-12-06T05:13:53.588Z,101204.69
2022-12-06T05:16:23.861Z,101191.63
2022-12-06T05:18:54.248Z,101193.31
2022-12-06T05:21:25.738Z,101190.75
2022-12-06T05:23:58.197Z,101195.06
2022-12-06T05:26:30.229Z,101192.47
2022-12-06T05:29:01.728Z,101183.66
2022-12-06T05:31:31.939Z,101127.63
2022-12-06T05:34:02.388Z,101175.81
2022-12-06T05:36:32.468Z,101174.09
2022-12-06T05:39:04.601Z,101170.59
2022-12-06T05:41:34.562Z,101174.19
2022-12-06T05:44:05.146Z,101174.22
2022-12-06T05:46:35.191Z,101171.63
2022-12-06T05:49:05.664Z,101168.13
2022-12-06T05:51:35.756Z,101168.13
2022-12-06T05:54:07.977Z,101165.50
2022-12-06T05:56:38.258Z,101167.19
2022-12-06T05:59:08.998Z,101168.97
2022-12-06T06:01:40.099Z,101162.00
2022-12-06T06:04:10.718Z,101162.91
2022-12-06T06:06:40.897Z,101168.16
2022-12-06T06:09:12.817Z,101163.00
2022-12-06T06:11:42.657Z,101165.69
2022-12-06T06:14:13.156Z,101167.34
2022-12-06T06:16:43.432Z,101173.44
2022-12-06T06:19:14.215Z,101167.34
2022-12-06T06:21:44.535Z,101169.06
2022-12-06T06:24:16.578Z,101166.44
2022-12-06T06:26:46.737Z,101163.84
2022-12-06T06:29:17.577Z,101174.41
2022-12-06T06:31:48.143Z,101173.53
2022-12-06T06:34:18.766Z,101172.56
2022-12-06T06:36:49.603Z,101170.81
2022-12-06T06:39:21.707Z,101167.47
2022-12-06T06:41:52.442Z,101171.72
2022-12-06T06:44:23.460Z,101166.56
2022-12-06T06:46:53.458Z,101166.63
2022-12-06T06:49:24.172Z,101162.28
2022-12-06T06:51:54.596Z,101156.25
2022-12-06T06:54:28.239Z,101153.59
2022-12-06T06:56:58.976Z,101152.84
2022-12-06T06:59:29.727Z,101152.84
2022-12-06T07:02:01.314Z,101151.16
2022-12-06T07:04:31.969Z,101154.66
2022-12-06T07:07:02.238Z,101150.38
2022-12-06T07:09:34.777Z,101160.06
2022-12-06T07:12:05.507Z,101155.72
2022-12-06T07:14:36.261Z,101159.22
2022-12-06T07:17:06.469Z,101148.75
2022-12-06T07:19:37.158Z,101147.94
2022-12-06T07:22:07.537Z,101154.91
2022-12-06T07:24:42.330Z,101154.97
2022-12-06T07:27:14.869Z,101154.97
2022-12-06T07:29:45.277Z,101159.47
2022-12-06T07:32:15.319Z,101158.59
2022-12-06T07:34:45.830Z,101156.84
2022-12-06T07:37:18.486Z,101152.56
2022-12-06T07:39:50.708Z,101143.88
2022-12-06T07:42:38.998Z,101139.63
2022-12-06T07:45:10.659Z,101144.06
2022-12-06T07:47:43.469Z,101144.97
2022-12-06T07:50:18.362Z,101148.50
2022-12-06T07:52:49.619Z,101141.47
2022-12-06T07:55:21.798Z,101144.16
2022-12-06T07:57:52.517Z,101127.66
2022-12-06T08:00:23.926Z,101131.19
2022-12-06T08:02:54.159Z,101133.03
2022-12-06T08:05:24.869Z,101128.84
2022-12-06T08:07:55.192Z,101131.53
2022-12-06T08:10:27.304Z,101127.06
2022-12-06T08:12:57.802Z,101139.19
2022-12-06T08:15:28.966Z,101142.78
2022-12-06T08:18:00.743Z,101135.03
2022-12-06T08:20:31.458Z,101140.25
2022-12-06T08:23:01.710Z,101137.75
2022-12-06T08:25:34.116Z,101137.84
2022-12-06T08:28:04.707Z,101141.41
2022-12-06T08:30:35.760Z,101139.59
2022-12-06T08:33:06.049Z,101138.75
2022-12-06T08:35:39.155Z,101135.44
2022-12-06T08:38:10.187Z,101139.84
2022-12-06T08:40:42.329Z,101147.84
2022-12-06T08:43:12.647Z,101142.63
2022-12-06T08:45:44.167Z,101142.53
2022-12-06T08:48:14.898Z,101148.66
2022-12-06T08:50:45.161Z,101150.34
2022-12-06T08:53:15.189Z,101151.28
2022-12-06T08:56:02.294Z,101149.66
2022-12-06T08:58:33.149Z,101145.31
2022-12-06T09:01:10.934Z,101150.56
2022-12-06T09:03:41.147Z,101133.19
2022-12-06T09:06:11.986Z,101132.50
2022-12-06T09:08:42.179Z,101135.19
2022-12-06T09:11:14.266Z,101130.88
2022-12-06T09:13:47.806Z,101130.06
2022-12-06T09:16:22.541Z,101125.53
2022-12-06T09:18:54.358Z,101129.09
2022-12-06T09:21:26.709Z,101130.00
2022-12-06T09:23:58.320Z,101129.16
2022-12-06T09:26:30.599Z,101127.56
2022-12-06T09:29:01.978Z,101120.69
2022-12-06T09:31:32.857Z,101115.41
2022-12-06T09:34:03.359Z,101109.38
2022-12-06T09:36:34.528Z,101099.81
2022-12-06T09:39:09.386Z,101095.69
2022-12-06T09:42:42.578Z,101102.81
2022-12-06T09:45:33.409Z,101094.88
2022-12-06T09:48:48.710Z,101095.81
2022-12-06T09:51:32.878Z,101088.94
2022-12-06T09:54:39.349Z,101089.03
2022-12-06T09:57:18.662Z,101090.75
2022-12-06T10:00:09.690Z,101092.31
2022-12-06T10:03:19.272Z,101088.06
2022-12-06T10:06:01.351Z,101087.09
2022-12-06T10:09:05.240Z,101076.59
2022-12-06T10:11:52.517Z,101074.03
2022-12-06T10:14:37.038Z,101074.81
2022-12-06T10:17:16.452Z,101074.00
2022-12-06T10:20:00.747Z,101075.75
2022-12-06T10:22:41.199Z,101074.91
2022-12-06T10:25:17.496Z,101074.13
2022-12-06T10:27:56.729Z,101066.38
2022-12-06T10:30:27.139Z,101072.56
2022-12-06T10:33:05.918Z,101067.25
2022-12-06T10:35:43.787Z,101066.34
2022-12-06T10:38:26.347Z,101064.72
2022-12-06T10:41:06.891Z,101061.22
2022-12-06T10:43:46.577Z,101061.25
2022-12-06T10:46:44.202Z,101057.63
2022-12-06T10:49:23.136Z,101057.63
2022-12-06T10:52:06.586Z,101050.75
2022-12-06T10:54:44.018Z,101019.56
2022-12-06T10:57:19.296Z,101050.75
2022-12-06T10:59:55.798Z,101045.38
2022-12-06T11:02:32.958Z,101046.06
2022-12-06T11:05:08.907Z,101038.22
2022-12-06T11:07:43.374Z,101040.84
2022-12-06T11:10:26.337Z,101030.34
2022-12-06T11:13:02.938Z,101028.66
2022-12-06T11:15:37.688Z,101026.03
2022-12-06T11:18:14.116Z,101023.56
2022-12-06T11:20:49.677Z,101021.72
2022-12-06T11:23:27.616Z,101033.19
2022-12-06T11:26:19.756Z,101027.13
2022-12-06T11:28:55.736Z,101027.97
2022-12-06T11:31:32.652Z,101033.19
2022-12-06T11:34:04.355Z,101034.00
2022-12-06T11:36:35.647Z,101035.75
2022-12-06T11:39:07.158Z,101033.00
2022-12-06T11:41:40.226Z,101031.31
2022-12-06T11:44:15.519Z,101027.72
2022-12-06T11:46:46.341Z,101025.00
2022-12-06T11:49:29.239Z,101027.69
2022-12-06T11:52:02.288Z,101026.78
2022-12-06T11:54:36.579Z,101021.69
2022-12-06T11:57:22.426Z,101017.28
2022-12-06T12:00:16.868Z,101018.13
2022-12-06T12:02:48.988Z,101023.34
2022-12-06T12:05:24.976Z,101012.88
2022-12-06T12:08:00.094Z,101007.69
2022-12-06T12:10:39.237Z,101010.34
2022-12-06T12:13:40.450Z,101006.03
2022-12-06T12:16:18.341Z,101009.59
2022-12-06T12:18:59.225Z,100999.97
2022-12-06T12:21:39.507Z,100981.75
2022-12-06T12:25:17.256Z,100988.75
2022-12-06T12:27:49.466Z,100990.50
2022-12-06T12:30:25.548Z,100987.06
2022-12-06T12:33:29.377Z,100981.78
2022-12-06T12:36:17.804Z,100977.41
2022-12-06T12:38:56.815Z,100975.78
2022-12-06T12:41:35.699Z,100968.66
2022-12-06T12:47:04.174Z,100966.19
2022-12-06T12:49:37.197Z,100961.88
2022-12-06T12:52:28.849Z,100957.50
2022-12-06T12:55:04.681Z,100954.00
2022-12-06T12:57:36.189Z,100946.28
2022-12-06T13:00:08.487Z,100943.75
2022-12-06T13:02:45.220Z,100935.97
2022-12-06T13:05:44.938Z,100936.06
2022-12-06T13:08:19.261Z,100943.09
2022-12-06T13:10:58.483Z,100946.59
2022-12-06T13:13:34.148Z,100934.41
2022-12-06T13:16:11.596Z,100936.06
2022-12-06T13:18:47.946Z,100932.59
2022-12-06T13:21:24.330Z,100931.81
2022-12-06T13:24:01.769Z,100923.97
2022-12-06T13:26:37.218Z,100927.34
2022-12-06T13:29:22.108Z,100929.13
2022-12-06T13:31:55.762Z,100922.22
2022-12-06T13:34:37.663Z,100926.59
2022-12-06T13:37:30.498Z,100927.50
2022-12-06T13:40:01.659Z,100926.56
2022-12-06T13:42:43.038Z,100931.81
2022-12-06T13:45:52.702Z,100933.41
2022-12-06T13:48:53.548Z,100929.81
2022-12-06T13:51:51.286Z,100931.63
2022-12-06T13:54:43.608Z,100927.19
2022-12-06T13:57:34.297Z,100937.66
2022-12-06T14:00:29.126Z,100926.25
2022-12-06T14:03:03.213Z,100927.84
2022-12-06T14:06:07.366Z,100933.06
2022-12-06T14:08:44.910Z,100933.78
2022-12-06T14:11:19.032Z,100922.31
2022-12-06T14:13:51.839Z,100921.41
2022-12-06T14:16:30.599Z,100917.94
2022-12-06T14:19:02.078Z,100921.47
2022-12-06T14:21:36.769Z,100920.56
2022-12-06T14:24:26.910Z,100914.41
2022-12-06T14:27:04.409Z,100914.41
2022-12-06T14:37:41.238Z,100912.47
2022-12-06T14:40:58.147Z,100915.84
2022-12-06T14:43:29.265Z,100916.66
2022-12-06T14:46:00.280Z,100908.84
2022-12-06T14:48:51.422Z,100912.28
2022-12-06T14:51:24.596Z,100904.44
2022-12-06T14:53:55.010Z,100906.16
2022-12-06T14:56:33.309Z,100900.00
2022-12-06T14:59:12.207Z,100900.00
2022-12-06T15:01:50.688Z,100891.22
2022-12-06T15:04:28.562Z,100897.31
2022-12-06T15:06:59.764Z,100900.81
2022-12-06T15:09:32.819Z,100886.84
2022-12-06T15:12:40.477Z,100885.09
2022-12-06T15:15:39.170Z,100883.28
2022-12-06T15:18:15.257Z,100875.44
2022-12-06T15:20:45.286Z,100879.78
2022-12-06T15:23:36.214Z,100882.47
2022-12-06T15:26:07.467Z,100878.13
2022-12-06T15:28:38.877Z,100867.59
2022-12-06T15:31:15.895Z,100872.78
2022-12-06T15:33:49.297Z,100856.22
2022-12-06T15:36:22.659Z,100862.34
2022-12-06T15:38:52.938Z,100845.78
2022-12-06T15:41:25.436Z,100845.72
2022-12-06T15:43:58.807Z,100851.03
2022-12-06T15:46:32.952Z,100845.88
2022-12-06T15:49:03.349Z,100840.56
2022-12-06T15:51:35.110Z,100841.44
2022-12-06T15:54:07.239Z,100835.31
2022-12-06T15:56:37.173Z,100839.66
2022-12-06T15:59:09.675Z,100841.38
2022-12-06T16:01:45.078Z,100841.38
2022-12-06T16:04:17.452Z,100838.75
2022-12-06T16:06:49.025Z,100839.59
2022-12-06T16:09:22.086Z,100841.34
2022-12-06T16:11:52.070Z,100837.00
2022-12-06T16:14:23.920Z,100844.00
2022-12-06T16:16:53.948Z,100845.72
2022-12-06T16:19:24.377Z,100843.97
2022-12-06T16:21:58.997Z,100850.94
2022-12-06T16:24:31.155Z,100844.72
2022-12-06T16:27:00.928Z,100856.06
2022-12-06T16:29:33.235Z,100851.69
2022-12-06T16:32:03.217Z,100855.13
2022-12-06T16:34:34.326Z,100852.38
2022-12-06T16:37:06.878Z,100848.88
2022-12-06T16:39:38.203Z,100853.28
2022-12-06T16:42:08.645Z,100854.09
2022-12-06T16:44:51.426Z,100851.44
2022-12-06T16:49:51.326Z,100842.72
2022-12-06T16:52:21.302Z,100853.16
2022-12-06T16:54:54.246Z,100852.31
2022-12-06T16:57:24.264Z,100851.44
2022-12-06T16:59:56.835Z,100847.97
2022-12-06T17:02:30.300Z,100845.41
2022-12-06T17:05:06.790Z,100854.09
2022-12-06T17:07:39.412Z,100846.22
2022-12-06T17:10:12.063Z,100847.09
2022-12-06T17:12:42.409Z,100852.31
2022-12-06T17:15:15.873Z,100838.41
2022-12-06T17:17:46.574Z,100841.03
2022-12-06T17:20:18.631Z,100838.41
2022-12-06T17:22:48.807Z,100836.72
2022-12-06T17:25:19.915Z,100829.69
2022-12-06T17:27:51.768Z,100831.41
2022-12-06T17:30:23.804Z,100830.69
2022-12-06T17:32:53.859Z,100822.78
2022-12-06T17:35:25.225Z,100830.63
2022-12-06T17:37:55.922Z,100829.03
2022-12-06T17:40:26.385Z,100836.03
2022-12-06T17:43:01.406Z,100830.84
2022-12-06T17:45:33.645Z,100821.28
2022-12-06T17:48:03.736Z,100825.69
2022-12-06T17:50:34.436Z,100823.06
2022-12-06T17:53:04.668Z,100817.84
2022-12-06T17:55:35.446Z,100822.09
2022-12-06T17:58:07.027Z,100815.97
2022-12-06T18:00:38.920Z,100821.22
2022-12-06T18:03:08.919Z,100820.38
2022-12-06T18:05:41.185Z,100819.50
2022-12-06T18:08:11.284Z,100818.63
2022-12-06T18:10:41.813Z,100813.38
2022-12-06T18:13:11.775Z,100815.13
2022-12-06T18:15:44.085Z,100812.50
2022-12-06T18:18:14.203Z,100804.69
2022-12-06T18:20:45.105Z,100802.03
2022-12-06T18:23:15.414Z,100801.19
2022-12-06T18:25:45.851Z,100794.25
2022-12-06T18:28:15.796Z,100795.97
2022-12-06T18:30:47.685Z,100794.25
2022-12-06T18:33:20.940Z,100792.56
2022-12-06T18:35:53.506Z,100789.06
2022-12-06T18:38:23.678Z,100785.63
2022-12-06T18:41:02.465Z,100777.78
2022-12-06T18:43:32.516Z,100778.63
2022-12-06T18:46:05.854Z,100772.53
2022-12-06T18:48:41.306Z,100769.84
2022-12-06T18:51:13.036Z,100768.06
2022-12-06T18:53:47.666Z,100772.44
2022-12-06T18:56:19.816Z,100775.91
2022-12-06T18:58:50.984Z,100774.25
2022-12-06T19:01:23.343Z,100769.00
2022-12-06T19:03:53.296Z,100765.56
2022-12-06T19:06:29.786Z,100764.66
2022-12-06T19:09:03.787Z,100759.44
2022-12-06T19:11:37.077Z,100754.22
2022-12-06T19:14:11.572Z,100758.56
2022-12-06T19:16:46.108Z,100752.41
2022-12-06T19:19:19.070Z,100757.63
2022-12-06T19:21:51.935Z,100743.69
2022-12-06T19:24:25.128Z,100748.03
2022-12-06T19:27:00.892Z,100745.44
2022-12-06T19:29:31.666Z,100734.09
2022-12-06T19:32:30.408Z,100737.56
2022-12-06T19:35:08.323Z,100743.69
2022-12-06T19:37:38.928Z,100749.81
2022-12-06T19:40:14.490Z,100744.63
2022-12-06T19:43:05.962Z,100740.28
2022-12-06T19:45:38.772Z,100744.63
2022-12-06T19:48:12.107Z,100737.69
2022-12-06T19:50:46.090Z,100744.63
2022-12-06T19:53:20.115Z,100731.59
2022-12-06T19:55:50.105Z,100736.91
2022-12-06T19:58:23.329Z,100736.00
2022-12-06T20:00:58.459Z,100730.84
2022-12-06T20:03:34.010Z,100722.13
2022-12-06T20:06:12.853Z,100729.97
2022-12-06T20:08:47.776Z,100723.00
2022-12-06T20:11:39.627Z,100722.00
2022-12-06T20:14:14.726Z,100718.53
2022-12-06T20:16:48.338Z,100710.72
2022-12-06T20:19:22.404Z,100696.75
2022-12-06T20:21:59.987Z,100694.13
2022-12-06T20:24:36.834Z,100701.94
2022-12-06T20:27:10.179Z,100693.22
2022-12-06T20:29:45.142Z,100699.38
2022-12-06T20:32:16.084Z,100688.97
2022-12-06T20:34:49.585Z,100686.47
2022-12-06T20:37:21.832Z,100685.59
2022-12-06T20:39:54.750Z,100675.00
2022-12-06T20:42:26.665Z,100678.44
2022-12-06T20:44:59.396Z,100677.59
2022-12-06T20:47:37.265Z,100668.00
2022-12-06T20:50:10.534Z,100661.91
2022-12-06T20:52:42.146Z,100656.78
2022-12-06T20:55:16.157Z,100662.81
2022-12-06T20:57:47.225Z,100650.69
2022-12-06T21:00:21.781Z,100648.97
2022-12-06T21:02:58.039Z,100652.44
2022-12-06T21:05:32.601Z,100646.34
2022-12-06T21:08:04.824Z,100648.09
2022-12-06T21:10:53.809Z,100646.34
2022-12-06T21:13:32.123Z,100651.53
2022-12-06T21:16:07.005Z,100640.16
2022-12-06T21:18:37.725Z,100635.91
2022-12-06T21:21:09.745Z,100636.75
2022-12-06T21:23:40.849Z,100643.69
2022-12-06T21:26:11.989Z,100643.69
2022-12-06T21:28:41.919Z,100641.97
2022-12-06T21:31:12.278Z,100631.53
2022-12-06T21:33:42.385Z,100623.75
2022-12-06T21:36:14.592Z,100631.59
2022-12-06T21:38:45.195Z,100629.84
2022-12-06T21:41:17.366Z,100623.81
2022-12-06T21:43:47.550Z,100630.72
2022-12-06T21:46:19.760Z,100620.28
2022-12-06T21:48:53.009Z,100626.44
2022-12-06T21:51:26.039Z,100616.78
2022-12-06T21:53:56.874Z,100621.13
2022-12-06T21:56:28.961Z,100614.16
2022-12-06T21:59:01.536Z,100615.91
2022-12-06T22:01:32.946Z,100608.03
2022-12-06T22:04:04.929Z,100612.38
2022-12-06T22:06:38.000Z,100606.28
2022-12-06T22:09:08.553Z,100604.56
2022-12-06T22:11:39.313Z,100595.94
2022-12-06T22:14:09.354Z,100589.03
2022-12-06T22:16:39.836Z,100589.13
2022-12-06T22:19:10.108Z,100591.75
2022-12-06T22:21:42.051Z,100596.97
2022-12-06T22:24:12.467Z,100593.50
2022-12-06T22:26:42.937Z,100596.94
2022-12-06T22:29:12.968Z,100586.50
2022-12-06T22:31:43.533Z,100586.41
2022-12-06T22:34:13.642Z,100591.63
2022-12-06T22:36:45.500Z,100591.59
2022-12-06T22:39:15.069Z,100577.63
2022-12-06T22:41:45.246Z,100584.66
2022-12-06T22:44:15.221Z,100581.97
2022-12-06T22:46:45.852Z,100575.03
2022-12-06T22:49:18.248Z,100580.19
2022-12-06T22:51:50.339Z,100568.06
2022-12-06T22:54:19.980Z,100578.53
2022-12-06T22:56:50.311Z,100572.47
2022-12-06T22:59:22.359Z,100571.59
2022-12-06T23:01:52.696Z,100569.00
2022-12-06T23:04:22.728Z,100568.13
2022-12-06T23:06:54.524Z,100570.75
2022-12-06T23:09:24.294Z,100551.56
2022-12-06T23:11:54.790Z,100564.69
2022-12-06T23:14:24.870Z,100543.78
2022-12-06T23:16:55.260Z,100542.03
2022-12-06T23:19:25.338Z,100537.69
2022-12-06T23:21:57.199Z,100535.94
2022-12-06T23:24:26.998Z,100542.94
2022-12-06T23:26:58.429Z,100539.47
2022-12-06T23:29:28.588Z,100539.38
2022-12-06T23:31:59.019Z,100547.28
2022-12-06T23:34:29.129Z,100542.03
2022-12-06T23:37:00.829Z,100479.50
2022-12-06T23:39:30.819Z,100530.72
2022-12-06T23:42:01.120Z,100536.84
2022-12-06T23:44:31.061Z,100525.50
2022-12-06T23:47:01.370Z,100524.69
2022-12-06T23:49:31.290Z,100525.63
2022-12-06T23:52:03.083Z,100521.28
2022-12-06T23:54:33.090Z,100524.78
2022-12-06T23:57:03.390Z,100520.44
2022-12-06T23:59:33.460Z,100512.59
